Time;durP1;ratioP1;P1;durP2;ratioP2;P2;SDS_P1;SDS_P2;PMS_P1;PMS_P2;Temp;Humidity;BMP_temperature;BMP_pressure;BME280_temperature;BME280_humidity;BME280_pressure;Samples;Min_cycle;Max_cycle;Signal;HPM_P1;HPM_P2
2020/12/06 00:00:14;;;;;;;;;;;19.20;39.20;;;;;;491628;240;1232;-53
2020/12/06 00:02:15;;;;;;;;;;;19.20;39.20;;;;;;491707;240;1000;-53
2020/12/06 00:04:19;;;;;;;;;;;19.20;39.20;;;;;;491635;240;1110;-52
2020/12/06 00:06:17;;;;;;;;;;;19.20;39.20;;;;;;491601;242;2178;-53
2020/12/06 00:08:18;;;;;;;;;;;19.30;39.20;;;;;;491604;240;2184;-53
2020/12/06 00:10:20;;;;;;;;;;;19.30;39.20;;;;;;491629;240;1058;-54
2020/12/06 00:12:21;;;;;;;;;;;19.30;39.20;;;;;;491613;240;1156;-53
2020/12/06 00:14:22;;;;;;;;;;;19.30;39.10;;;;;;491652;240;962;-53
2020/12/06 00:16:23;;;;;;;;;;;19.30;39.10;;;;;;491751;240;1038;-53
2020/12/06 00:18:25;;;;;;;;;;;19.30;39.10;;;;;;491625;240;1065;-53
2020/12/06 00:20:26;;;;;;;;;;;19.30;39.10;;;;;;491900;240;1081;-53
2020/12/06 00:22:27;;;;;;;;;;;19.30;39.10;;;;;;491834;240;1083;-53
2020/12/06 00:24:29;;;;;;;;;;;19.30;39.10;;;;;;492081;240;1086;-53
2020/12/06 00:26:30;;;;;;;;;;;19.40;39.10;;;;;;491649;240;1156;-53
2020/12/06 00:28:31;;;;;;;;;;;19.40;39.10;;;;;;491636;240;2187;-53
2020/12/06 00:30:32;;;;;;;;;;;19.40;39.00;;;;;;491724;240;1160;-54
2020/12/06 00:32:34;;;;;;;;;;;19.40;39.00;;;;;;491728;240;1165;-54
2020/12/06 00:34:35;;;;;;;;;;;19.40;39.00;;;;;;491908;240;1066;-53
2020/12/06 00:36:36;;;;;;;;;;;19.40;39.00;;;;;;491668;240;1047;-54
2020/12/06 00:38:38;;;;;;;;;;;19.40;39.00;;;;;;491682;240;1194;-53
2020/12/06 00:40:39;;;;;;;;;;;19.40;39.00;;;;;;491654;240;1038;-53
2020/12/06 00:42:40;;;;;;;;;;;19.40;39.00;;;;;;491639;240;1166;-54
2020/12/06 00:44:41;;;;;;;;;;;19.40;38.90;;;;;;491653;240;1069;-52
2020/12/06 00:46:44;;;;;;;;;;;19.40;38.90;;;;;;491633;240;1073;-52
2020/12/06 00:48:44;;;;;;;;;;;19.50;38.90;;;;;;491971;240;2219;-53
2020/12/06 00:50:45;;;;;;;;;;;19.50;38.90;;;;;;491679;240;1124;-53
2020/12/06 00:52:47;;;;;;;;;;;19.50;38.90;;;;;;491757;240;1074;-53
2020/12/06 00:54:48;;;;;;;;;;;19.50;38.90;;;;;;491687;240;1060;-54
2020/12/06 00:56:49;;;;;;;;;;;19.50;38.90;;;;;;491652;240;1078;-53
2020/12/06 00:58:50;;;;;;;;;;;19.50;38.80;;;;;;491742;240;1157;-53
2020/12/06 01:00:52;;;;;;;;;;;19.50;38.80;;;;;;491850;240;1050;-53
2020/12/06 01:02:53;;;;;;;;;;;19.50;38.80;;;;;;491663;240;1053;-53
2020/12/06 01:04:54;;;;;;;;;;;19.50;38.80;;;;;;492174;240;1070;-53
2020/12/06 01:06:55;;;;;;;;;;;19.60;38.90;;;;;;491888;240;2204;-53
2020/12/06 01:08:57;;;;;;;;;;;19.50;38.80;;;;;;491855;240;1025;-53
2020/12/06 01:10:58;;;;;;;;;;;19.60;38.80;;;;;;492146;240;1045;-53
2020/12/06 01:13:00;;;;;;;;;;;19.60;38.80;;;;;;491652;240;1374;-53
2020/12/06 01:15:01;;;;;;;;;;;19.60;38.80;;;;;;491680;240;1056;-53
2020/12/06 01:17:02;;;;;;;;;;;19.60;38.80;;;;;;491758;240;1060;-53
2020/12/06 01:19:04;;;;;;;;;;;19.60;38.80;;;;;;491685;240;1058;-53
2020/12/06 01:21:05;;;;;;;;;;;19.60;38.80;;;;;;491664;240;1039;-53
2020/12/06 01:23:06;;;;;;;;;;;19.60;38.80;;;;;;491833;240;1062;-54
2020/12/06 01:25:07;;;;;;;;;;;19.60;38.80;;;;;;491956;240;1071;-53
2020/12/06 01:27:09;;;;;;;;;;;19.60;38.80;;;;;;491660;240;2188;-53
2020/12/06 01:29:10;;;;;;;;;;;19.60;38.70;;;;;;491765;240;1194;-53
2020/12/06 01:31:11;;;;;;;;;;;19.60;38.70;;;;;;491634;240;1068;-53
2020/12/06 01:33:13;;;;;;;;;;;19.70;38.80;;;;;;491705;240;1124;-54
2020/12/06 01:35:14;;;;;;;;;;;19.60;38.70;;;;;;491623;240;2293;-53
2020/12/06 01:37:15;;;;;;;;;;;19.60;38.70;;;;;;491623;240;1063;-53
2020/12/06 01:39:16;;;;;;;;;;;19.70;38.80;;;;;;491659;240;1064;-53
2020/12/06 01:41:18;;;;;;;;;;;19.70;38.70;;;;;;491670;240;1044;-53
2020/12/06 01:43:19;;;;;;;;;;;19.70;38.70;;;;;;491627;240;1239;-54
2020/12/06 01:45:20;;;;;;;;;;;19.70;38.60;;;;;;491826;240;1074;-53
2020/12/06 01:47:21;;;;;;;;;;;19.70;38.70;;;;;;491622;240;2192;-53
2020/12/06 01:49:23;;;;;;;;;;;19.70;38.70;;;;;;491648;240;1120;-54
2020/12/06 01:51:24;;;;;;;;;;;19.70;38.70;;;;;;491653;240;1307;-54
2020/12/06 01:53:26;;;;;;;;;;;19.70;38.60;;;;;;491639;240;1039;-54
2020/12/06 01:55:27;;;;;;;;;;;19.70;38.60;;;;;;491830;240;1241;-54
2020/12/06 01:57:28;;;;;;;;;;;19.70;38.70;;;;;;491656;240;1284;-53
2020/12/06 01:59:29;;;;;;;;;;;19.70;38.60;;;;;;491720;240;1195;-54
2020/12/06 02:01:31;;;;;;;;;;;19.70;38.70;;;;;;491676;240;1276;-53
2020/12/06 02:03:32;;;;;;;;;;;19.70;38.60;;;;;;491777;240;1094;-54
2020/12/06 02:05:33;;;;;;;;;;;19.70;38.60;;;;;;491634;240;1086;-53
2020/12/06 02:07:35;;;;;;;;;;;19.80;38.60;;;;;;491634;240;2212;-53
2020/12/06 02:09:36;;;;;;;;;;;19.80;38.60;;;;;;491686;240;1095;-53
2020/12/06 02:11:38;;;;;;;;;;;19.80;38.60;;;;;;491646;240;1086;-53
2020/12/06 02:13:38;;;;;;;;;;;19.80;38.60;;;;;;491677;238;1268;-53
2020/12/06 02:15:40;;;;;;;;;;;19.80;38.60;;;;;;491772;240;1217;-53
2020/12/06 02:17:41;;;;;;;;;;;19.80;38.60;;;;;;491670;240;1077;-53
2020/12/06 02:19:42;;;;;;;;;;;19.80;38.60;;;;;;491605;240;1221;-53
2020/12/06 02:21:44;;;;;;;;;;;19.80;38.50;;;;;;491617;240;1142;-53
2020/12/06 02:23:45;;;;;;;;;;;19.80;38.50;;;;;;491832;240;1122;-54
2020/12/06 02:25:46;;;;;;;;;;;19.80;38.60;;;;;;491745;240;1200;-53
2020/12/06 02:27:47;;;;;;;;;;;19.80;38.60;;;;;;491630;240;2187;-54
2020/12/06 02:29:49;;;;;;;;;;;19.80;38.50;;;;;;491736;240;1341;-54
2020/12/06 02:31:50;;;;;;;;;;;19.80;38.60;;;;;;491576;240;1139;-53
2020/12/06 02:33:52;;;;;;;;;;;19.80;38.50;;;;;;491661;240;1071;-53
2020/12/06 02:35:53;;;;;;;;;;;19.80;38.50;;;;;;491563;240;1273;-53
2020/12/06 02:37:54;;;;;;;;;;;19.80;38.50;;;;;;491796;240;1112;-53
2020/12/06 02:39:55;;;;;;;;;;;19.80;38.50;;;;;;491620;240;1257;-54
2020/12/06 02:41:57;;;;;;;;;;;19.90;38.50;;;;;;491579;240;1263;-53
2020/12/06 02:43:58;;;;;;;;;;;19.90;38.50;;;;;;491741;240;1179;-53
2020/12/06 02:45:59;;;;;;;;;;;19.90;38.50;;;;;;491651;240;1436;-53
2020/12/06 02:48:01;;;;;;;;;;;19.90;38.50;;;;;;491647;240;2195;-53
2020/12/06 02:50:02;;;;;;;;;;;19.80;38.50;;;;;;491689;240;1051;-53
2020/12/06 02:52:03;;;;;;;;;;;19.90;38.50;;;;;;491661;240;1049;-54
2020/12/06 02:54:04;;;;;;;;;;;19.90;38.50;;;;;;491739;240;1177;-53
2020/12/06 02:56:06;;;;;;;;;;;19.90;38.50;;;;;;491992;240;1342;-53
2020/12/06 02:58:07;;;;;;;;;;;19.90;38.50;;;;;;491606;240;1194;-53
2020/12/06 03:00:08;;;;;;;;;;;19.90;38.50;;;;;;491613;240;1172;-53
2020/12/06 03:02:09;;;;;;;;;;;19.90;38.40;;;;;;491645;240;1046;-53
2020/12/06 03:04:11;;;;;;;;;;;19.90;38.40;;;;;;491737;240;1075;-54
2020/12/06 03:06:12;;;;;;;;;;;19.90;38.40;;;;;;491792;240;1073;-53
2020/12/06 03:08:13;;;;;;;;;;;19.90;38.50;;;;;;491783;240;2184;-54
2020/12/06 03:10:15;;;;;;;;;;;19.90;38.50;;;;;;491663;240;989;-54
2020/12/06 03:12:16;;;;;;;;;;;19.90;38.40;;;;;;491634;240;1185;-53
2020/12/06 03:14:17;;;;;;;;;;;19.90;38.40;;;;;;491665;239;1319;-53
2020/12/06 03:16:18;;;;;;;;;;;19.90;38.50;;;;;;491623;240;1228;-53
2020/12/06 03:18:20;;;;;;;;;;;19.90;38.40;;;;;;491634;240;1269;-53
2020/12/06 03:20:21;;;;;;;;;;;20.00;38.40;;;;;;491779;240;1065;-53
2020/12/06 03:22:22;;;;;;;;;;;20.00;38.40;;;;;;491584;240;1192;-53
2020/12/06 03:24:24;;;;;;;;;;;19.90;38.30;;;;;;491642;240;1040;-53
2020/12/06 03:26:25;;;;;;;;;;;19.90;38.40;;;;;;491613;240;1058;-53
2020/12/06 03:28:26;;;;;;;;;;;20.00;38.40;;;;;;491710;240;2195;-53
2020/12/06 03:30:27;;;;;;;;;;;20.00;38.40;;;;;;491655;240;1184;-53
2020/12/06 03:32:29;;;;;;;;;;;20.00;38.40;;;;;;491628;240;1016;-53
2020/12/06 03:34:30;;;;;;;;;;;20.00;38.40;;;;;;491634;240;1025;-53
2020/12/06 03:36:31;;;;;;;;;;;20.00;38.40;;;;;;491655;240;1261;-53
2020/12/06 03:38:32;;;;;;;;;;;20.00;38.40;;;;;;491615;240;1080;-53
2020/12/06 03:40:34;;;;;;;;;;;19.90;38.30;;;;;;491901;240;1115;-53
2020/12/06 03:42:35;;;;;;;;;;;20.00;38.40;;;;;;491824;240;1050;-53
2020/12/06 03:44:36;;;;;;;;;;;20.00;38.30;;;;;;491645;240;1276;-53
2020/12/06 03:46:38;;;;;;;;;;;20.00;38.30;;;;;;491909;240;1257;-52
2020/12/06 03:48:39;;;;;;;;;;;20.00;38.40;;;;;;491640;240;2185;-53
2020/12/06 03:50:40;;;;;;;;;;;20.00;38.30;;;;;;491748;240;1042;-54
2020/12/06 03:52:41;;;;;;;;;;;20.00;38.40;;;;;;491738;240;1070;-53
2020/12/06 03:54:43;;;;;;;;;;;20.00;38.30;;;;;;491608;240;1063;-53
2020/12/06 03:56:44;;;;;;;;;;;20.00;38.30;;;;;;491617;240;1049;-53
2020/12/06 03:58:45;;;;;;;;;;;20.00;38.30;;;;;;491763;240;1060;-53
2020/12/06 04:00:47;;;;;;;;;;;20.00;38.30;;;;;;491767;240;1718;-53
2020/12/06 04:02:48;;;;;;;;;;;20.00;38.30;;;;;;491648;240;1107;-53
2020/12/06 04:04:49;;;;;;;;;;;20.00;38.30;;;;;;491653;240;1078;-53
2020/12/06 04:06:50;;;;;;;;;;;20.00;38.30;;;;;;491650;240;1097;-53
2020/12/06 04:08:52;;;;;;;;;;;20.00;38.30;;;;;;491626;240;2160;-53
2020/12/06 04:10:53;;;;;;;;;;;20.00;38.30;;;;;;491654;240;1084;-53
2020/12/06 04:12:54;;;;;;;;;;;20.00;38.30;;;;;;491618;240;1058;-54
2020/12/06 04:14:55;;;;;;;;;;;20.00;38.30;;;;;;491636;238;1412;-54
2020/12/06 04:16:57;;;;;;;;;;;20.00;38.30;;;;;;492008;240;1201;-53
2020/12/06 04:18:58;;;;;;;;;;;20.00;38.30;;;;;;491693;240;1164;-53
2020/12/06 04:20:59;;;;;;;;;;;20.10;38.30;;;;;;491873;240;1091;-53
2020/12/06 04:23:01;;;;;;;;;;;20.10;38.30;;;;;;491654;240;1124;-52
2020/12/06 04:25:02;;;;;;;;;;;20.10;38.30;;;;;;491659;240;1079;-53
2020/12/06 04:27:03;;;;;;;;;;;20.10;38.30;;;;;;491643;240;1161;-53
2020/12/06 04:29:04;;;;;;;;;;;20.10;38.80;;;;;;491836;240;2187;-53
2020/12/06 04:31:06;;;;;;;;;;;20.10;38.30;;;;;;491797;240;1159;-53
2020/12/06 04:33:07;;;;;;;;;;;20.20;38.20;;;;;;491650;240;1043;-53
2020/12/06 04:35:08;;;;;;;;;;;20.10;38.20;;;;;;491780;240;1042;-53
2020/12/06 04:37:10;;;;;;;;;;;20.10;38.30;;;;;;491637;240;1077;-53
2020/12/06 04:39:11;;;;;;;;;;;20.00;38.40;;;;;;491634;240;1074;-53
2020/12/06 04:41:12;;;;;;;;;;;19.90;38.50;;;;;;492058;240;1080;-53
2020/12/06 04:43:13;;;;;;;;;;;19.90;38.70;;;;;;491652;240;1243;-52
2020/12/06 04:45:15;;;;;;;;;;;19.80;38.80;;;;;;491657;238;1303;-53
2020/12/06 04:47:16;;;;;;;;;;;19.80;38.90;;;;;;491651;240;1066;-53
2020/12/06 04:49:17;;;;;;;;;;;19.70;39.00;;;;;;491870;240;2207;-53
2020/12/06 04:51:18;;;;;;;;;;;19.70;39.10;;;;;;491657;240;982;-53
2020/12/06 04:53:20;;;;;;;;;;;19.60;39.10;;;;;;491657;240;1061;-53
2020/12/06 04:55:21;;;;;;;;;;;19.50;39.20;;;;;;491667;240;1210;-53
2020/12/06 04:57:22;;;;;;;;;;;19.50;39.30;;;;;;491690;240;1276;-53
2020/12/06 04:59:24;;;;;;;;;;;19.50;39.40;;;;;;491644;240;1045;-53
2020/12/06 05:01:25;;;;;;;;;;;19.50;39.30;;;;;;491622;240;1181;-53
2020/12/06 05:03:26;;;;;;;;;;;19.50;39.30;;;;;;491633;240;1028;-53
2020/12/06 05:05:27;;;;;;;;;;;19.40;39.40;;;;;;492075;240;1156;-53
2020/12/06 05:07:29;;;;;;;;;;;19.40;39.50;;;;;;491587;240;1203;-53
2020/12/06 05:09:30;;;;;;;;;;;19.30;39.60;;;;;;491816;240;2172;-53
2020/12/06 05:11:31;;;;;;;;;;;19.30;39.70;;;;;;491793;240;1310;-53
2020/12/06 05:13:33;;;;;;;;;;;19.30;39.70;;;;;;491864;240;1080;-53
2020/12/06 05:15:34;;;;;;;;;;;19.20;39.80;;;;;;491638;240;1202;-52
2020/12/06 05:17:35;;;;;;;;;;;19.20;39.80;;;;;;491867;240;1046;-53
2020/12/06 05:19:36;;;;;;;;;;;19.10;39.90;;;;;;491643;240;1076;-53
2020/12/06 05:21:38;;;;;;;;;;;19.10;39.90;;;;;;491605;240;1053;-53
2020/12/06 05:23:39;;;;;;;;;;;19.10;40.00;;;;;;491607;240;1177;-53
2020/12/06 05:25:40;;;;;;;;;;;19.00;40.10;;;;;;491627;240;1071;-53
2020/12/06 05:27:41;;;;;;;;;;;19.00;40.10;;;;;;491641;240;1178;-53
2020/12/06 05:29:43;;;;;;;;;;;19.00;40.20;;;;;;491942;240;2191;-53
2020/12/06 05:31:44;;;;;;;;;;;18.90;40.20;;;;;;491756;240;1274;-53
2020/12/06 05:33:45;;;;;;;;;;;18.90;40.30;;;;;;491664;240;1271;-53
2020/12/06 05:35:47;;;;;;;;;;;18.90;40.30;;;;;;491885;240;1026;-53
2020/12/06 05:37:49;;;;;;;;;;;18.80;40.30;;;;;;491799;240;1264;-54
2020/12/06 05:39:50;;;;;;;;;;;18.80;40.30;;;;;;491991;240;1029;-53
2020/12/06 05:41:51;;;;;;;;;;;18.80;40.40;;;;;;491648;240;1228;-53
2020/12/06 05:43:52;;;;;;;;;;;18.80;40.40;;;;;;491661;240;1053;-53
2020/12/06 05:45:54;;;;;;;;;;;18.80;40.50;;;;;;491642;240;1172;-53
2020/12/06 05:47:55;;;;;;;;;;;18.80;40.50;;;;;;491643;240;1172;-53
2020/12/06 05:49:56;;;;;;;;;;;18.70;40.50;;;;;;491636;240;2184;-52
2020/12/06 05:51:57;;;;;;;;;;;18.70;40.50;;;;;;491589;240;1232;-53
2020/12/06 05:53:59;;;;;;;;;;;18.70;40.60;;;;;;491680;240;1065;-53
2020/12/06 05:56:00;;;;;;;;;;;18.70;40.60;;;;;;491628;240;1158;-53
2020/12/06 05:58:01;;;;;;;;;;;18.70;40.60;;;;;;491650;240;1068;-53
2020/12/06 06:00:03;;;;;;;;;;;18.60;40.60;;;;;;491625;240;1293;-53
2020/12/06 06:02:04;;;;;;;;;;;18.60;40.70;;;;;;491744;240;1216;-53
2020/12/06 06:04:05;;;;;;;;;;;18.60;40.70;;;;;;491616;240;1086;-53
2020/12/06 06:06:06;;;;;;;;;;;18.60;40.70;;;;;;491710;240;1338;-53
2020/12/06 06:08:08;;;;;;;;;;;18.50;40.70;;;;;;491607;240;1006;-53
2020/12/06 06:10:09;;;;;;;;;;;18.60;40.80;;;;;;491641;240;2220;-53
2020/12/06 06:12:10;;;;;;;;;;;18.60;40.80;;;;;;491612;240;1070;-53
2020/12/06 06:14:11;;;;;;;;;;;18.50;40.80;;;;;;491638;240;1057;-53
2020/12/06 06:16:13;;;;;;;;;;;18.50;40.80;;;;;;491811;240;1283;-53
2020/12/06 06:18:14;;;;;;;;;;;18.50;40.80;;;;;;491646;240;1049;-53
2020/12/06 06:20:15;;;;;;;;;;;18.40;40.80;;;;;;492001;240;1097;-53
2020/12/06 06:22:17;;;;;;;;;;;18.50;40.90;;;;;;491637;240;1301;-53
2020/12/06 06:24:18;;;;;;;;;;;18.40;40.90;;;;;;491923;240;1079;-53
2020/12/06 06:26:20;;;;;;;;;;;18.40;40.90;;;;;;491620;240;1058;-53
2020/12/06 06:28:21;;;;;;;;;;;18.40;40.90;;;;;;491928;240;1068;-53
2020/12/06 06:30:22;;;;;;;;;;;18.40;40.90;;;;;;491702;240;2184;-53
2020/12/06 06:32:23;;;;;;;;;;;18.40;40.90;;;;;;491578;240;1249;-53
2020/12/06 06:34:25;;;;;;;;;;;18.40;41.00;;;;;;491701;240;989;-53
2020/12/06 06:36:26;;;;;;;;;;;18.40;41.00;;;;;;491694;240;1601;-53
2020/12/06 06:38:27;;;;;;;;;;;18.30;40.90;;;;;;491634;240;1082;-53
2020/12/06 06:40:28;;;;;;;;;;;18.30;41.00;;;;;;491866;240;1184;-52
2020/12/06 06:42:31;;;;;;;;;;;18.30;41.00;;;;;;491671;240;1242;-53
2020/12/06 06:44:31;;;;;;;;;;;18.30;41.00;;;;;;491737;241;2306;-54
2020/12/06 06:46:32;;;;;;;;;;;18.30;41.00;;;;;;491569;240;1177;-53
2020/12/06 06:48:34;;;;;;;;;;;18.30;41.00;;;;;;491655;240;1075;-53
2020/12/06 06:50:35;;;;;;;;;;;18.30;41.10;;;;;;492046;240;2195;-53
2020/12/06 06:52:36;;;;;;;;;;;18.30;41.10;;;;;;491651;240;1077;-53
2020/12/06 06:54:37;;;;;;;;;;;18.20;41.00;;;;;;491772;240;1061;-53
2020/12/06 06:56:39;;;;;;;;;;;18.20;41.10;;;;;;491632;240;1093;-53
2020/12/06 06:58:40;;;;;;;;;;;18.20;41.10;;;;;;491626;240;1066;-53
2020/12/06 07:00:41;;;;;;;;;;;18.20;41.10;;;;;;491649;240;1082;-53
2020/12/06 07:02:43;;;;;;;;;;;18.20;41.10;;;;;;491574;240;1175;-53
2020/12/06 07:04:44;;;;;;;;;;;18.20;41.10;;;;;;492040;240;1081;-53
2020/12/06 07:06:46;;;;;;;;;;;18.20;41.10;;;;;;491628;240;1361;-53
2020/12/06 07:08:49;;;;;;;;;;;18.20;41.20;;;;;;491837;240;1102;-53
2020/12/06 07:10:50;;;;;;;;;;;18.20;41.20;;;;;;491577;240;2180;-53
2020/12/06 07:12:51;;;;;;;;;;;18.20;41.20;;;;;;491645;240;1050;-53
2020/12/06 07:14:53;;;;;;;;;;;18.10;41.10;;;;;;491709;240;1035;-54
2020/12/06 07:16:54;;;;;;;;;;;18.10;41.20;;;;;;491639;240;1190;-54
2020/12/06 07:18:55;;;;;;;;;;;18.10;41.20;;;;;;491624;240;1073;-53
2020/12/06 07:20:57;;;;;;;;;;;18.20;41.10;;;;;;491665;240;1060;-53
2020/12/06 07:22:58;;;;;;;;;;;18.20;41.00;;;;;;491669;240;1070;-53
2020/12/06 07:24:59;;;;;;;;;;;18.20;40.90;;;;;;491847;240;1278;-53
2020/12/06 07:27:00;;;;;;;;;;;18.20;40.80;;;;;;491630;240;1179;-53
2020/12/06 07:29:02;;;;;;;;;;;18.30;40.80;;;;;;491725;240;2188;-53
2020/12/06 07:31:03;;;;;;;;;;;18.30;40.80;;;;;;491758;240;1284;-53
2020/12/06 07:33:04;;;;;;;;;;;18.30;40.70;;;;;;491782;240;1160;-53
2020/12/06 07:35:06;;;;;;;;;;;18.40;40.70;;;;;;491613;240;1215;-53
2020/12/06 07:37:08;;;;;;;;;;;18.40;40.70;;;;;;491539;240;1148;-54
2020/12/06 07:39:08;;;;;;;;;;;18.40;40.60;;;;;;491665;240;1065;-53
2020/12/06 07:41:10;;;;;;;;;;;18.40;40.60;;;;;;491530;240;1207;-53
2020/12/06 07:43:11;;;;;;;;;;;18.40;40.50;;;;;;491928;240;1075;-53
2020/12/06 07:45:12;;;;;;;;;;;18.50;40.50;;;;;;491636;240;1104;-52
2020/12/06 07:47:14;;;;;;;;;;;18.50;40.50;;;;;;491787;240;1183;-54
2020/12/06 07:49:15;;;;;;;;;;;18.60;40.50;;;;;;491904;240;2179;-53
2020/12/06 07:51:16;;;;;;;;;;;18.50;40.40;;;;;;491624;240;1127;-53
2020/12/06 07:53:18;;;;;;;;;;;18.50;40.30;;;;;;491829;240;1166;-53
2020/12/06 07:55:19;;;;;;;;;;;18.60;40.30;;;;;;491662;240;995;-53
2020/12/06 07:57:20;;;;;;;;;;;18.60;40.30;;;;;;491588;240;1160;-53
2020/12/06 07:59:21;;;;;;;;;;;18.60;40.20;;;;;;491647;240;972;-53
2020/12/06 08:01:23;;;;;;;;;;;18.70;38.90;;;;;;491632;239;1349;-52
2020/12/06 08:03:24;;;;;;;;;;;18.70;40.20;;;;;;491724;240;1126;-53
2020/12/06 08:05:25;;;;;;;;;;;18.70;40.10;;;;;;491656;240;1061;-53
2020/12/06 08:07:27;;;;;;;;;;;18.70;40.10;;;;;;491630;240;1168;-53
2020/12/06 08:09:28;;;;;;;;;;;18.70;40.10;;;;;;491641;240;2181;-53
2020/12/06 08:11:29;;;;;;;;;;;18.80;40.00;;;;;;491603;240;1291;-53
2020/12/06 08:13:30;;;;;;;;;;;18.80;40.00;;;;;;491703;240;963;-53
2020/12/06 08:15:32;;;;;;;;;;;18.80;40.00;;;;;;491629;240;1078;-52
2020/12/06 08:17:33;;;;;;;;;;;18.80;39.90;;;;;;491798;240;1273;-53
2020/12/06 08:19:38;;;;;;;;;;;18.80;39.90;;;;;;491647;240;1152;-53
2020/12/06 08:21:36;;;;;;;;;;;18.90;39.90;;;;;;491691;240;2310;-54
2020/12/06 08:23:39;;;;;;;;;;;18.90;39.90;;;;;;491646;240;1109;-53
2020/12/06 08:25:39;;;;;;;;;;;18.90;39.90;;;;;;491714;241;2299;-52
2020/12/06 08:27:40;;;;;;;;;;;18.90;39.80;;;;;;491617;240;1289;-53
2020/12/06 08:29:42;;;;;;;;;;;18.90;39.70;;;;;;491998;240;2171;-53
2020/12/06 08:31:45;;;;;;;;;;;18.90;39.70;;;;;;491899;240;1063;-53
2020/12/06 08:33:44;;;;;;;;;;;19.00;39.70;;;;;;491538;242;2333;-53
2020/12/06 08:35:47;;;;;;;;;;;19.00;39.70;;;;;;491644;240;1037;-54
2020/12/06 08:37:47;;;;;;;;;;;19.00;39.70;;;;;;491581;241;2197;-52
2020/12/06 08:39:49;;;;;;;;;;;19.00;39.60;;;;;;491618;240;1013;-53
2020/12/06 08:41:50;;;;;;;;;;;19.00;39.60;;;;;;491625;240;1044;-53
2020/12/06 08:43:51;;;;;;;;;;;19.00;39.60;;;;;;491607;240;1130;-54
2020/12/06 08:45:53;;;;;;;;;;;19.00;39.60;;;;;;491877;240;1070;-53
2020/12/06 08:47:54;;;;;;;;;;;19.10;39.60;;;;;;491734;240;1332;-53
2020/12/06 08:49:55;;;;;;;;;;;19.10;39.60;;;;;;491584;240;2188;-54
2020/12/06 08:51:56;;;;;;;;;;;19.10;39.60;;;;;;491658;240;1064;-52
2020/12/06 08:53:58;;;;;;;;;;;19.10;39.50;;;;;;491708;240;1303;-53
2020/12/06 08:55:59;;;;;;;;;;;19.20;39.50;;;;;;491976;240;1041;-53
2020/12/06 08:58:00;;;;;;;;;;;19.20;39.50;;;;;;491875;240;1303;-53
2020/12/06 09:00:02;;;;;;;;;;;19.20;39.50;;;;;;491651;240;1266;-54
2020/12/06 09:02:03;;;;;;;;;;;19.20;39.50;;;;;;491641;240;1165;-53
2020/12/06 09:04:04;;;;;;;;;;;19.20;39.50;;;;;;491615;240;1202;-53
2020/12/06 09:06:05;;;;;;;;;;;19.20;39.40;;;;;;491840;240;1069;-53
2020/12/06 09:08:07;;;;;;;;;;;19.20;39.40;;;;;;491816;240;1195;-54
2020/12/06 09:10:08;;;;;;;;;;;19.20;39.40;;;;;;491896;240;2176;-53
2020/12/06 09:12:09;;;;;;;;;;;19.20;39.30;;;;;;491652;240;1275;-54
2020/12/06 09:14:10;;;;;;;;;;;19.30;39.40;;;;;;491619;240;1144;-53
2020/12/06 09:16:12;;;;;;;;;;;19.30;39.40;;;;;;491777;240;1504;-53
2020/12/06 09:18:13;;;;;;;;;;;19.30;39.30;;;;;;491641;239;1322;-53
2020/12/06 09:20:14;;;;;;;;;;;19.30;39.30;;;;;;491629;240;1090;-52
2020/12/06 09:22:16;;;;;;;;;;;19.30;39.30;;;;;;491610;240;1130;-53
2020/12/06 09:24:17;;;;;;;;;;;19.30;39.30;;;;;;491904;240;1081;-53
2020/12/06 09:26:18;;;;;;;;;;;19.30;39.30;;;;;;491633;240;1147;-53
2020/12/06 09:28:19;;;;;;;;;;;19.30;39.20;;;;;;491635;240;1065;-53
2020/12/06 09:30:21;;;;;;;;;;;19.30;39.20;;;;;;491629;240;2185;-53
2020/12/06 09:32:22;;;;;;;;;;;19.40;39.30;;;;;;491608;240;1128;-53
2020/12/06 09:34:23;;;;;;;;;;;19.40;39.20;;;;;;491731;240;1181;-53
2020/12/06 09:36:25;;;;;;;;;;;19.40;39.20;;;;;;491632;240;1315;-53
2020/12/06 09:38:26;;;;;;;;;;;19.40;39.20;;;;;;491781;240;1107;-53
2020/12/06 09:40:27;;;;;;;;;;;19.40;39.20;;;;;;491763;240;1299;-53
2020/12/06 09:42:28;;;;;;;;;;;19.40;39.20;;;;;;491650;240;1125;-53
2020/12/06 09:44:30;;;;;;;;;;;19.40;39.10;;;;;;491768;240;1069;-53
2020/12/06 09:46:31;;;;;;;;;;;19.40;39.10;;;;;;491606;240;1329;-53
2020/12/06 09:48:32;;;;;;;;;;;19.40;39.10;;;;;;491665;240;1065;-53
2020/12/06 09:50:33;;;;;;;;;;;19.50;39.10;;;;;;491911;240;2180;-53
2020/12/06 09:52:35;;;;;;;;;;;19.50;39.10;;;;;;491781;240;1150;-53
2020/12/06 09:54:36;;;;;;;;;;;19.40;39.10;;;;;;491999;240;1195;-54
2020/12/06 09:56:37;;;;;;;;;;;19.50;39.10;;;;;;491831;240;1119;-53
2020/12/06 09:58:39;;;;;;;;;;;19.50;39.10;;;;;;491688;240;1068;-53
2020/12/06 10:00:42;;;;;;;;;;;19.50;39.10;;;;;;491884;240;1156;-53
2020/12/06 10:02:42;;;;;;;;;;;19.50;39.10;;;;;;491661;242;2129;-53
2020/12/06 10:04:42;;;;;;;;;;;19.50;39.10;;;;;;491711;240;1195;-53
2020/12/06 10:06:44;;;;;;;;;;;19.50;39.00;;;;;;491718;240;1240;-53
2020/12/06 10:08:45;;;;;;;;;;;19.50;39.00;;;;;;491867;240;947;-53
2020/12/06 10:10:46;;;;;;;;;;;19.50;39.00;;;;;;491758;240;2187;-53
2020/12/06 10:12:47;;;;;;;;;;;19.50;39.00;;;;;;491778;240;1105;-53
2020/12/06 10:14:49;;;;;;;;;;;19.50;39.00;;;;;;491634;240;1142;-54
2020/12/06 10:16:50;;;;;;;;;;;19.50;38.90;;;;;;491726;240;1156;-53
2020/12/06 10:18:54;;;;;;;;;;;19.60;39.00;;;;;;491663;240;1361;-53
2020/12/06 10:20:53;;;;;;;;;;;19.60;39.00;;;;;;491589;241;1956;-53
2020/12/06 10:22:54;;;;;;;;;;;19.60;39.00;;;;;;491657;240;1054;-53
2020/12/06 10:24:55;;;;;;;;;;;19.60;39.00;;;;;;491656;240;968;-53
2020/12/06 10:26:56;;;;;;;;;;;19.60;39.00;;;;;;491599;240;1075;-53
2020/12/06 10:28:58;;;;;;;;;;;19.60;38.90;;;;;;491735;240;1089;-53
2020/12/06 10:30:59;;;;;;;;;;;19.60;38.90;;;;;;491710;240;2192;-53
2020/12/06 10:33:00;;;;;;;;;;;19.60;38.90;;;;;;491846;240;1047;-53
2020/12/06 10:35:02;;;;;;;;;;;19.60;38.90;;;;;;491657;240;1166;-53
2020/12/06 10:37:03;;;;;;;;;;;19.60;38.90;;;;;;491922;240;1064;-53
2020/12/06 10:39:04;;;;;;;;;;;19.60;38.90;;;;;;491649;240;1075;-53
2020/12/06 10:41:05;;;;;;;;;;;19.60;38.90;;;;;;491629;240;1093;-53
2020/12/06 10:43:07;;;;;;;;;;;19.70;38.90;;;;;;491629;240;1059;-53
2020/12/06 10:45:08;;;;;;;;;;;19.60;38.90;;;;;;491640;240;1086;-54
2020/12/06 10:47:09;;;;;;;;;;;19.70;38.90;;;;;;491626;240;1197;-53
2020/12/06 10:49:10;;;;;;;;;;;19.60;38.80;;;;;;491903;240;1333;-53
2020/12/06 10:51:12;;;;;;;;;;;19.70;38.90;;;;;;491626;240;2195;-53
2020/12/06 10:53:13;;;;;;;;;;;19.70;38.80;;;;;;491692;240;1284;-53
2020/12/06 10:55:14;;;;;;;;;;;19.70;38.80;;;;;;491879;240;1205;-53
2020/12/06 10:57:16;;;;;;;;;;;19.70;38.80;;;;;;491595;240;1188;-54
2020/12/06 10:59:17;;;;;;;;;;;19.70;38.80;;;;;;491652;240;1307;-53
2020/12/06 11:01:18;;;;;;;;;;;19.70;38.80;;;;;;491652;240;1059;-53
2020/12/06 11:03:19;;;;;;;;;;;19.70;38.80;;;;;;491890;240;1300;-53
2020/12/06 11:05:21;;;;;;;;;;;19.70;38.80;;;;;;491653;240;1204;-53
2020/12/06 11:07:22;;;;;;;;;;;19.80;38.80;;;;;;491912;240;1233;-53
2020/12/06 11:09:23;;;;;;;;;;;19.70;38.80;;;;;;491737;240;965;-53
2020/12/06 11:11:25;;;;;;;;;;;19.80;38.90;;;;;;491605;240;2191;-53
2020/12/06 11:13:26;;;;;;;;;;;19.70;38.70;;;;;;492001;240;1029;-53
2020/12/06 11:15:27;;;;;;;;;;;19.70;38.80;;;;;;491876;240;1033;-53
2020/12/06 11:17:30;;;;;;;;;;;19.80;38.80;;;;;;491807;240;1167;-54
2020/12/06 11:19:31;;;;;;;;;;;19.80;38.80;;;;;;491744;240;1235;-53
2020/12/06 11:21:33;;;;;;;;;;;19.80;38.80;;;;;;491651;240;1178;-54
2020/12/06 11:23:34;;;;;;;;;;;19.80;38.80;;;;;;491909;240;1035;-53
2020/12/06 11:25:37;;;;;;;;;;;19.80;38.80;;;;;;491635;240;1064;-53
2020/12/06 11:27:37;;;;;;;;;;;19.80;38.80;;;;;;491628;242;2268;-53
2020/12/06 11:29:38;;;;;;;;;;;19.80;38.80;;;;;;491635;240;1188;-53
2020/12/06 11:31:39;;;;;;;;;;;19.80;38.80;;;;;;491670;240;2177;-53
2020/12/06 11:33:41;;;;;;;;;;;19.80;38.80;;;;;;491697;240;1053;-53
2020/12/06 11:35:42;;;;;;;;;;;19.80;38.70;;;;;;491646;240;1180;-53
2020/12/06 11:37:43;;;;;;;;;;;19.80;38.70;;;;;;491626;240;1178;-53
2020/12/06 11:39:45;;;;;;;;;;;19.80;38.80;;;;;;491779;240;1303;-53
2020/12/06 11:41:46;;;;;;;;;;;19.80;38.70;;;;;;491631;240;2297;-53
2020/12/06 11:43:47;;;;;;;;;;;19.80;38.70;;;;;;491648;240;1158;-54
2020/12/06 11:45:48;;;;;;;;;;;19.80;38.70;;;;;;491650;240;1173;-53
2020/12/06 11:47:50;;;;;;;;;;;19.90;38.70;;;;;;491592;240;1195;-53
2020/12/06 11:49:51;;;;;;;;;;;19.80;38.70;;;;;;491634;240;1075;-53
2020/12/06 11:51:52;;;;;;;;;;;19.80;38.70;;;;;;491672;240;2187;-54
2020/12/06 11:53:54;;;;;;;;;;;19.90;38.70;;;;;;491627;240;1201;-53
2020/12/06 11:55:55;;;;;;;;;;;19.90;38.70;;;;;;491710;240;1046;-53